createdAt,value
2022-08-31T00:00:38.071Z,2.85
2022-08-31T00:03:25.069Z,5.70
2022-08-31T00:05:57.686Z,6.07
2022-08-31T00:08:25.530Z,7.00
2022-08-31T00:10:55.387Z,5.65
2022-08-31T00:13:23.447Z,6.93
2022-08-31T00:15:52.162Z,5.40
2022-08-31T00:18:21.995Z,4.30
2022-08-31T00:20:49.593Z,4.72
2022-08-31T00:23:18.240Z,5.28
2022-08-31T00:25:48.935Z,6.22
2022-08-31T00:28:17.794Z,7.28
2022-08-31T00:30:46.223Z,7.90
2022-08-31T00:33:14.507Z,7.22
2022-08-31T00:35:43.619Z,5.28
2022-08-31T00:38:12.339Z,6.30
2022-08-31T00:40:45.027Z,6.13
2022-08-31T00:43:13.362Z,4.45
2022-08-31T00:45:40.809Z,4.80
2022-08-31T00:48:08.243Z,4.95
2022-08-31T00:50:35.720Z,5.00
2022-08-31T00:53:04.459Z,4.70
2022-08-31T00:55:34.901Z,4.80
2022-08-31T00:58:07.235Z,4.90
2022-08-31T01:00:36.172Z,4.90
2022-08-31T01:03:07.707Z,5.00
2022-08-31T01:05:36.290Z,4.60
2022-08-31T01:08:06.762Z,5.15
2022-08-31T01:10:37.727Z,5.30
2022-08-31T01:13:05.773Z,4.53
2022-08-31T01:15:34.081Z,4.68
2022-08-31T01:18:04.200Z,4.65
2022-08-31T01:20:48.554Z,5.30
2022-08-31T01:23:21.417Z,4.50
2022-08-31T01:25:50.980Z,4.78
2022-08-31T01:28:18.408Z,4.00
2022-08-31T01:30:59.023Z,5.45
2022-08-31T01:33:26.909Z,6.15
2022-08-31T01:35:54.760Z,4.18
2022-08-31T01:38:23.770Z,4.10
2022-08-31T01:40:53.964Z,3.92
2022-08-31T01:43:21.735Z,2.78
2022-08-31T01:45:49.357Z,2.20
2022-08-31T01:48:17.299Z,2.20
2022-08-31T01:50:45.216Z,2.20
2022-08-31T01:53:13.173Z,2.35
2022-08-31T01:55:42.411Z,2.70
2022-08-31T01:58:10.365Z,2.70
2022-08-31T02:00:37.962Z,2.63
2022-08-31T02:03:08.031Z,2.60
2022-08-31T02:05:36.531Z,2.45
2022-08-31T02:08:06.257Z,2.63
2022-08-31T02:10:33.805Z,2.80
2022-08-31T02:13:02.893Z,3.38
2022-08-31T02:15:30.497Z,3.03
2022-08-31T02:17:57.951Z,3.33
2022-08-31T02:20:25.514Z,3.20
2022-08-31T02:22:52.920Z,3.20
2022-08-31T02:25:20.505Z,3.28
2022-08-31T02:27:47.945Z,3.17
2022-08-31T02:30:19.985Z,3.17
2022-08-31T02:32:47.731Z,3.30
2022-08-31T02:35:15.144Z,2.85
2022-08-31T02:37:42.580Z,3.08
2022-08-31T02:40:11.997Z,3.20
2022-08-31T02:42:52.925Z,3.00
2022-08-31T02:45:22.956Z,2.90
2022-08-31T02:47:50.361Z,2.63
2022-08-31T02:50:18.993Z,3.00
2022-08-31T02:52:46.788Z,2.92
2022-08-31T02:55:14.859Z,2.58
2022-08-31T02:57:42.260Z,2.60
2022-08-31T03:03:04.404Z,2.40
2022-08-31T03:05:32.080Z,2.55
2022-08-31T03:07:59.487Z,2.65
2022-08-31T03:10:27.670Z,2.70
2022-08-31T03:12:55.357Z,2.42
2022-08-31T03:15:24.782Z,2.90
2022-08-31T03:17:52.377Z,2.78
2022-08-31T03:20:24.108Z,2.47
2022-08-31T03:22:51.615Z,2.38
2022-08-31T03:25:20.580Z,3.05
2022-08-31T03:27:48.384Z,2.88
2022-08-31T03:30:18.371Z,2.88
2022-08-31T03:32:48.151Z,3.13
2022-08-31T03:35:17.954Z,2.90
2022-08-31T03:37:46.716Z,2.97
2022-08-31T03:40:14.364Z,2.85
2022-08-31T03:42:44.684Z,2.95
2022-08-31T03:45:12.295Z,3.13
2022-08-31T03:47:44.745Z,2.75
2022-08-31T03:50:15.734Z,2.53
2022-08-31T03:52:43.589Z,2.55
2022-08-31T03:55:13.702Z,2.63
2022-08-31T03:57:41.265Z,2.47
2022-08-31T04:00:10.422Z,2.50
2022-08-31T04:02:38.770Z,2.38
2022-08-31T04:05:08.296Z,2.28
2022-08-31T04:07:42.323Z,2.40
2022-08-31T04:10:13.474Z,2.33
2022-08-31T04:12:42.163Z,2.10
2022-08-31T04:15:10.921Z,2.45
2022-08-31T04:17:39.167Z,2.10
2022-08-31T04:20:07.593Z,1.75
2022-08-31T04:22:34.983Z,1.65
2022-08-31T04:25:02.452Z,2.05
2022-08-31T04:27:31.159Z,1.85
2022-08-31T04:29:58.561Z,1.92
2022-08-31T04:32:25.971Z,1.83
2022-08-31T04:34:56.664Z,1.95
2022-08-31T04:37:24.248Z,2.00
2022-08-31T04:39:52.255Z,1.65
2022-08-31T04:42:19.950Z,1.40
2022-08-31T04:44:48.658Z,1.10
2022-08-31T04:47:16.081Z,1.00
2022-08-31T04:49:43.508Z,1.05
2022-08-31T04:52:10.910Z,0.93
2022-08-31T04:54:38.321Z,1.10
2022-08-31T04:57:05.931Z,1.05
2022-08-31T04:59:33.441Z,1.08
2022-08-31T05:02:03.876Z,1.15
2022-08-31T05:04:31.839Z,1.20
2022-08-31T05:06:59.432Z,1.00
2022-08-31T05:09:27.132Z,1.00
2022-08-31T05:11:56.008Z,1.05
2022-08-31T05:14:24.763Z,1.02
2022-08-31T05:16:53.404Z,1.17
2022-08-31T05:19:22.189Z,1.15
2022-08-31T05:21:50.056Z,1.08
2022-08-31T05:24:20.309Z,1.27
2022-08-31T05:26:50.700Z,1.48
2022-08-31T05:29:20.462Z,1.60
2022-08-31T05:31:52.012Z,1.80
2022-08-31T05:34:20.756Z,1.90
2022-08-31T05:36:52.258Z,2.03
2022-08-31T05:39:19.977Z,2.25
2022-08-31T05:41:48.281Z,2.58
2022-08-31T05:44:16.731Z,2.92
2022-08-31T05:46:44.346Z,3.28
2022-08-31T05:49:12.045Z,3.90
2022-08-31T05:51:40.301Z,4.15
2022-08-31T05:54:10.730Z,4.63
2022-08-31T05:56:40.953Z,4.97
2022-08-31T05:59:10.421Z,4.50
2022-08-31T06:01:39.381Z,3.95
2022-08-31T06:04:08.632Z,4.28
2022-08-31T06:06:37.078Z,4.63
2022-08-31T06:09:05.857Z,4.50
2022-08-31T06:11:35.714Z,4.53
2022-08-31T06:14:05.560Z,4.13
2022-08-31T06:16:33.997Z,4.22
2022-08-31T06:19:04.574Z,4.47
2022-08-31T06:21:34.521Z,3.60
2022-08-31T06:24:04.148Z,3.28
2022-08-31T06:26:36.170Z,3.08
2022-08-31T06:29:07.020Z,2.42
2022-08-31T06:31:37.963Z,2.28
2022-08-31T06:34:07.397Z,2.20
2022-08-31T06:36:35.516Z,2.22
2022-08-31T06:39:03.704Z,4.07
2022-08-31T06:41:36.435Z,4.93
2022-08-31T06:44:07.848Z,4.43
2022-08-31T06:46:36.762Z,4.18
2022-08-31T06:49:05.561Z,2.45
2022-08-31T06:51:38.023Z,2.08
2022-08-31T06:54:21.737Z,1.77
2022-08-31T06:56:54.727Z,1.05
2022-08-31T06:59:28.263Z,1.10
2022-08-31T07:04:24.025Z,1.00
2022-08-31T07:06:51.413Z,1.00
2022-08-31T07:09:18.903Z,1.33
2022-08-31T07:11:48.955Z,1.50
2022-08-31T07:14:18.541Z,1.52
2022-08-31T07:16:47.544Z,1.70
2022-08-31T07:19:16.056Z,1.70
2022-08-31T07:21:46.341Z,1.70
2022-08-31T07:24:15.778Z,1.92
2022-08-31T07:26:45.863Z,2.05
2022-08-31T07:29:15.767Z,1.98
2022-08-31T07:31:44.595Z,1.85
2022-08-31T07:34:14.476Z,1.95
2022-08-31T07:36:56.255Z,1.95
2022-08-31T07:39:41.204Z,2.15
2022-08-31T07:42:11.772Z,2.17
2022-08-31T07:44:41.324Z,2.13
2022-08-31T07:47:12.325Z,1.92
2022-08-31T07:49:47.726Z,1.88
2022-08-31T07:54:44.302Z,1.63
2022-08-31T07:57:11.745Z,1.90
2022-08-31T07:59:39.737Z,1.88
2022-08-31T08:02:08.232Z,1.73
2022-08-31T08:04:39.804Z,1.58
2022-08-31T08:07:08.492Z,1.58
2022-08-31T08:09:36.256Z,1.25
2022-08-31T08:12:06.391Z,1.27
2022-08-31T08:14:36.337Z,0.90
2022-08-31T08:17:04.921Z,0.73
2022-08-31T08:19:33.676Z,1.10
2022-08-31T08:22:02.848Z,1.00
2022-08-31T08:24:32.561Z,1.15
2022-08-31T08:27:00.425Z,1.15
2022-08-31T08:29:30.156Z,1.23
2022-08-31T08:32:01.328Z,1.55
2022-08-31T08:34:32.749Z,2.90
2022-08-31T08:37:00.911Z,3.17
2022-08-31T08:39:28.625Z,3.05
2022-08-31T08:41:57.796Z,3.75
2022-08-31T08:44:28.833Z,4.35
2022-08-31T08:46:58.079Z,5.35
2022-08-31T08:49:35.261Z,5.60
2022-08-31T08:52:13.683Z,3.60
2022-08-31T08:54:46.536Z,4.00
2022-08-31T08:57:25.335Z,4.15
2022-08-31T08:59:57.085Z,3.20
2022-08-31T09:02:31.396Z,2.30
2022-08-31T09:05:12.227Z,2.17
2022-08-31T09:07:58.082Z,1.50
2022-08-31T09:10:31.958Z,2.00
2022-08-31T09:13:14.174Z,2.80
2022-08-31T09:15:56.815Z,1.90
2022-08-31T09:18:36.735Z,1.60
2022-08-31T09:21:08.215Z,1.80
2022-08-31T09:23:38.350Z,1.63
2022-08-31T09:26:08.546Z,1.17
2022-08-31T09:28:48.493Z,1.30
2022-08-31T09:31:37.131Z,1.20
2022-08-31T09:34:08.457Z,1.30
2022-08-31T09:36:41.175Z,1.30
2022-08-31T09:39:24.892Z,1.50
2022-08-31T09:42:00.847Z,1.35
2022-08-31T09:44:34.398Z,1.30
2022-08-31T09:47:05.349Z,1.98
2022-08-31T09:49:36.762Z,2.10
2022-08-31T09:52:18.869Z,1.88
2022-08-31T09:55:12.853Z,2.20
2022-08-31T09:57:46.565Z,2.33
2022-08-31T10:00:16.852Z,2.65
2022-08-31T10:02:44.300Z,2.30
2022-08-31T10:05:32.134Z,2.28
2022-08-31T10:08:04.418Z,2.05
2022-08-31T10:10:37.061Z,3.05
2022-08-31T10:13:09.567Z,5.30
2022-08-31T10:15:42.769Z,3.83
2022-08-31T10:18:16.239Z,3.85
2022-08-31T10:20:48.402Z,6.30
2022-08-31T10:23:21.783Z,4.45
2022-08-31T10:25:58.300Z,6.37
2022-08-31T10:28:36.504Z,5.15
2022-08-31T10:31:11.076Z,6.15
2022-08-31T10:34:00.969Z,6.90
2022-08-31T10:36:36.253Z,7.13
2022-08-31T10:39:09.690Z,6.40
2022-08-31T10:41:44.068Z,5.10
2022-08-31T10:44:18.157Z,2.90
2022-08-31T10:46:46.914Z,2.97
2022-08-31T10:49:14.724Z,3.20
2022-08-31T10:51:50.948Z,2.80
2022-08-31T10:54:30.933Z,2.30
2022-08-31T10:57:09.206Z,2.42
2022-08-31T10:59:56.471Z,2.30
2022-08-31T11:02:55.356Z,2.22
2022-08-31T11:05:36.162Z,2.70
2022-08-31T11:08:28.911Z,3.28
2022-08-31T11:10:58.115Z,1.88
2022-08-31T11:13:51.660Z,1.65
2022-08-31T11:16:33.650Z,1.40
2022-08-31T11:19:26.929Z,1.05
2022-08-31T11:22:16.295Z,1.20
2022-08-31T11:25:10.801Z,1.27
2022-08-31T11:27:41.624Z,1.45
2022-08-31T11:30:24.372Z,1.27
2022-08-31T11:32:55.294Z,1.17
2022-08-31T11:36:04.050Z,1.30
2022-08-31T11:38:47.870Z,1.50
2022-08-31T11:41:33.861Z,1.50
2022-08-31T11:44:04.650Z,1.77
2022-08-31T11:46:53.077Z,1.52
2022-08-31T11:49:44.717Z,2.10
2022-08-31T11:52:33.945Z,1.50
2022-08-31T11:55:11.277Z,1.70
2022-08-31T11:58:20.759Z,1.65
2022-08-31T12:00:53.988Z,0.80
2022-08-31T12:03:45.747Z,0.70
2022-08-31T12:06:43.364Z,0.60
2022-08-31T12:09:27.827Z,0.70
2022-08-31T12:12:07.496Z,0.90
2022-08-31T12:14:42.371Z,0.70
2022-08-31T12:17:21.791Z,0.75
2022-08-31T12:20:01.281Z,0.50
2022-08-31T12:23:30.699Z,0.60
2022-08-31T12:26:17.874Z,0.50
2022-08-31T12:29:04.412Z,0.60
2022-08-31T12:31:35.573Z,0.60
2022-08-31T12:34:07.881Z,0.60
2022-08-31T12:36:37.136Z,0.80
2022-08-31T12:39:10.400Z,0.73
2022-08-31T12:41:43.663Z,0.60
2022-08-31T12:44:14.033Z,0.60
2022-08-31T12:46:58.614Z,0.63
2022-08-31T12:49:42.240Z,0.50
2022-08-31T12:52:23.469Z,0.60
2022-08-31T12:55:12.548Z,0.50
2022-08-31T12:58:07.748Z,0.55
2022-08-31T13:00:39.294Z,0.50
2022-08-31T13:03:17.311Z,0.57
2022-08-31T13:06:01.161Z,0.50
2022-08-31T13:08:28.632Z,0.70
2022-08-31T13:10:56.077Z,0.65
2022-08-31T13:13:28.537Z,0.70
2022-08-31T13:16:00.376Z,0.70
2022-08-31T13:18:30.900Z,0.70
2022-08-31T13:21:05.717Z,0.75
2022-08-31T13:23:36.751Z,0.63
2022-08-31T13:26:09.908Z,0.85
2022-08-31T13:28:38.599Z,0.95
2022-08-31T13:31:09.136Z,1.17
2022-08-31T13:33:40.084Z,1.17
2022-08-31T13:36:11.471Z,1.35
2022-08-31T13:38:49.868Z,1.10
2022-08-31T13:41:27.266Z,1.20
2022-08-31T13:44:02.644Z,0.95
2022-08-31T13:46:42.975Z,0.90
2022-08-31T13:49:29.587Z,0.90
2022-08-31T13:51:57.329Z,0.82
2022-08-31T13:54:31.404Z,0.75
2022-08-31T13:57:10.670Z,0.68
2022-08-31T13:59:41.256Z,0.70
2022-08-31T14:02:36.347Z,0.68
2022-08-31T14:05:12.819Z,0.70
2022-08-31T14:07:58.870Z,0.63
2022-08-31T14:10:28.536Z,0.52
2022-08-31T14:12:59.068Z,0.60
2022-08-31T14:15:36.202Z,0.70
2022-08-31T14:18:25.218Z,0.70
2022-08-31T14:21:22.641Z,0.75
2022-08-31T14:23:52.848Z,0.65
2022-08-31T14:26:29.784Z,0.70
2022-08-31T14:29:00.923Z,0.65
2022-08-31T14:31:34.728Z,0.70
2022-08-31T14:34:22.174Z,0.52
2022-08-31T14:36:53.747Z,0.70
2022-08-31T14:39:24.270Z,0.60
2022-08-31T14:41:53.203Z,0.52
2022-08-31T14:44:24.124Z,0.60
2022-08-31T14:46:52.928Z,0.70
2022-08-31T14:49:20.680Z,0.70
2022-08-31T14:51:51.524Z,0.70
2022-08-31T14:54:18.943Z,0.80
2022-08-31T14:56:50.243Z,0.80
2022-08-31T14:59:21.837Z,0.63
2022-08-31T15:01:50.697Z,0.70
2022-08-31T15:04:21.491Z,0.75
2022-08-31T15:06:53.855Z,0.70
2022-08-31T15:09:22.028Z,0.60
2022-08-31T15:11:50.882Z,0.70
2022-08-31T15:14:18.631Z,0.90
2022-08-31T15:16:48.433Z,0.90
2022-08-31T15:19:16.428Z,1.10
2022-08-31T15:21:52.699Z,1.70
2022-08-31T15:24:26.305Z,1.60
2022-08-31T15:26:59.469Z,1.60
2022-08-31T15:29:28.913Z,1.50
2022-08-31T15:31:58.299Z,1.50
2022-08-31T15:34:29.443Z,1.90
2022-08-31T15:37:02.049Z,1.83
2022-08-31T15:39:32.474Z,1.70
2022-08-31T15:42:00.581Z,1.80
2022-08-31T15:44:27.999Z,1.60
2022-08-31T15:47:13.203Z,0.80
2022-08-31T15:49:43.536Z,0.70
2022-08-31T15:52:12.970Z,0.77
2022-08-31T15:54:41.228Z,1.10
2022-08-31T15:57:11.238Z,1.73
2022-08-31T15:59:41.121Z,1.60
2022-08-31T16:02:09.834Z,1.42
2022-08-31T16:04:38.494Z,0.70
2022-08-31T16:07:07.919Z,0.60
2022-08-31T16:09:37.464Z,0.70
2022-08-31T16:12:05.376Z,0.60
2022-08-31T16:14:33.430Z,0.80
2022-08-31T16:17:00.902Z,0.88
2022-08-31T16:19:35.492Z,0.80
2022-08-31T16:22:05.881Z,0.80
2022-08-31T16:24:37.369Z,0.80
2022-08-31T16:27:08.169Z,0.80
2022-08-31T16:29:36.753Z,1.00
2022-08-31T16:32:06.745Z,0.90
2022-08-31T16:34:35.345Z,0.80
2022-08-31T16:37:07.192Z,0.80
2022-08-31T16:39:36.105Z,0.70
2022-08-31T16:42:04.220Z,0.70
2022-08-31T16:44:37.028Z,0.70
2022-08-31T16:47:05.239Z,0.60
2022-08-31T16:49:36.069Z,0.60
2022-08-31T16:52:06.165Z,0.70
2022-08-31T16:54:34.239Z,0.80
2022-08-31T16:57:02.180Z,0.88
2022-08-31T16:59:30.402Z,0.80
2022-08-31T17:01:59.219Z,0.73
2022-08-31T17:04:51.054Z,0.75
2022-08-31T17:07:16.421Z,0.75
2022-08-31T17:09:44.198Z,0.70
2022-08-31T17:12:15.285Z,0.80
2022-08-31T17:14:52.282Z,0.70
2022-08-31T17:17:23.152Z,0.88
2022-08-31T17:19:52.127Z,0.88
2022-08-31T17:22:26.920Z,0.90
2022-08-31T17:24:57.726Z,0.90
2022-08-31T17:27:26.857Z,0.80
2022-08-31T17:29:56.089Z,0.82
2022-08-31T17:32:27.344Z,0.90
2022-08-31T17:34:55.828Z,0.85
2022-08-31T17:37:26.836Z,0.70
2022-08-31T17:39:56.127Z,0.70
2022-08-31T17:42:26.758Z,0.90
2022-08-31T17:44:55.225Z,0.80
2022-08-31T17:47:25.719Z,0.77
2022-08-31T17:49:54.072Z,0.70
2022-08-31T17:52:23.277Z,0.80
2022-08-31T17:54:52.211Z,0.82
2022-08-31T17:57:25.115Z,0.80
2022-08-31T17:59:54.776Z,0.80
2022-08-31T18:02:27.588Z,0.88
2022-08-31T18:04:55.270Z,0.90
2022-08-31T18:07:23.004Z,0.80
2022-08-31T18:09:50.693Z,0.80
2022-08-31T18:12:21.966Z,0.90
2022-08-31T18:14:49.708Z,1.67
2022-08-31T18:17:17.505Z,1.65
2022-08-31T18:19:46.561Z,1.52
2022-08-31T18:22:14.830Z,1.52
2022-08-31T18:24:43.566Z,1.50
2022-08-31T18:27:15.125Z,1.48
2022-08-31T18:29:43.163Z,1.30
2022-08-31T18:32:11.118Z,1.50
2022-08-31T18:34:44.158Z,1.50
2022-08-31T18:37:13.785Z,1.73
2022-08-31T18:39:59.588Z,2.00
2022-08-31T18:42:45.660Z,1.83
2022-08-31T18:45:22.010Z,1.77
2022-08-31T18:50:44.267Z,1.80
2022-08-31T18:53:27.505Z,1.75
2022-08-31T18:55:57.471Z,1.85
2022-08-31T18:58:24.968Z,1.40
2022-08-31T19:00:57.626Z,1.73
2022-08-31T19:03:25.668Z,1.75
2022-08-31T19:05:53.126Z,1.85
2022-08-31T19:08:22.972Z,1.98
2022-08-31T19:10:51.235Z,1.52
2022-08-31T19:13:18.945Z,1.45
2022-08-31T19:15:46.546Z,2.05
2022-08-31T19:18:15.361Z,2.05
2022-08-31T19:20:42.950Z,2.20
2022-08-31T19:23:10.456Z,2.00
2022-08-31T19:25:43.545Z,2.10
2022-08-31T19:28:11.654Z,2.60
2022-08-31T19:30:39.407Z,2.70
2022-08-31T19:33:08.389Z,2.17
2022-08-31T19:35:36.480Z,2.50
2022-08-31T19:38:04.224Z,2.00
2022-08-31T19:40:39.117Z,2.38
2022-08-31T19:45:55.490Z,2.78
2022-08-31T19:48:24.143Z,2.72
2022-08-31T19:50:52.454Z,3.85
2022-08-31T19:53:22.605Z,4.00
2022-08-31T19:55:53.451Z,4.20
2022-08-31T19:58:25.399Z,4.32
2022-08-31T20:01:00.681Z,4.22
2022-08-31T20:03:31.230Z,4.45
2022-08-31T20:05:59.507Z,4.57
2022-08-31T20:08:28.125Z,4.88
2022-08-31T20:10:55.594Z,5.47
2022-08-31T20:13:27.635Z,5.30
2022-08-31T20:15:56.966Z,5.35
2022-08-31T20:18:26.212Z,5.40
2022-08-31T20:20:55.068Z,5.57
2022-08-31T20:23:22.527Z,5.85
2022-08-31T20:25:53.153Z,6.35
2022-08-31T20:28:26.357Z,6.10
2022-08-31T20:30:59.036Z,6.10
2022-08-31T20:33:27.622Z,6.55
2022-08-31T20:35:55.135Z,6.25
2022-08-31T20:38:22.592Z,5.50
2022-08-31T20:40:52.257Z,5.22
2022-08-31T20:43:21.112Z,3.00
2022-08-31T20:45:49.427Z,2.20
2022-08-31T20:48:35.725Z,2.00
2022-08-31T20:51:15.849Z,1.27
2022-08-31T20:53:44.251Z,1.40
2022-08-31T20:56:17.129Z,1.70
2022-08-31T20:58:45.436Z,1.47
2022-08-31T21:01:14.061Z,1.80
2022-08-31T21:03:43.037Z,1.73
2022-08-31T21:06:12.086Z,1.33
2022-08-31T21:08:40.877Z,1.35
2022-08-31T21:11:13.389Z,1.23
2022-08-31T21:13:42.708Z,1.20
2022-08-31T21:16:10.797Z,1.10
2022-08-31T21:18:39.948Z,1.10
2022-08-31T21:21:16.602Z,1.00
2022-08-31T21:23:44.933Z,1.00
2022-08-31T21:26:19.574Z,1.10
2022-08-31T21:28:48.627Z,1.00
2022-08-31T21:31:29.004Z,1.10
2022-08-31T21:34:00.161Z,1.10
2022-08-31T21:36:29.828Z,1.13
2022-08-31T21:39:01.349Z,1.15
2022-08-31T21:41:30.203Z,1.08
2022-08-31T21:43:58.305Z,1.10
2022-08-31T21:46:27.753Z,1.15
2022-08-31T21:48:57.100Z,1.10
2022-08-31T21:51:27.665Z,1.13
2022-08-31T21:53:59.577Z,1.08
2022-08-31T21:56:30.676Z,1.10
2022-08-31T21:58:59.633Z,0.90
2022-08-31T22:01:29.756Z,0.95
2022-08-31T22:03:59.356Z,1.08
2022-08-31T22:06:29.056Z,1.30
2022-08-31T22:09:01.016Z,1.38
2022-08-31T22:11:30.997Z,1.35
2022-08-31T22:13:59.999Z,1.48
2022-08-31T22:16:28.052Z,1.52
2022-08-31T22:19:02.504Z,1.60
2022-08-31T22:21:34.076Z,1.55
2022-08-31T22:24:07.048Z,1.50
2022-08-31T22:26:38.783Z,1.63
2022-08-31T22:29:07.778Z,1.60
2022-08-31T22:31:37.139Z,1.42
2022-08-31T22:34:06.421Z,1.35
2022-08-31T22:36:34.498Z,1.17
2022-08-31T22:39:09.622Z,1.00
2022-08-31T22:41:41.507Z,1.00
2022-08-31T22:44:10.995Z,1.05
2022-08-31T22:46:40.595Z,1.05
2022-08-31T22:49:08.550Z,1.00
2022-08-31T22:51:38.083Z,0.93
2022-08-31T22:54:08.398Z,0.90
2022-08-31T22:56:38.127Z,1.00
2022-08-31T22:59:08.695Z,0.90
2022-08-31T23:01:38.233Z,1.00
2022-08-31T23:04:08.706Z,1.05
2022-08-31T23:06:38.021Z,1.00
2022-08-31T23:09:10.474Z,0.90
2022-08-31T23:11:39.242Z,1.00
2022-08-31T23:14:08.892Z,1.10
2022-08-31T23:16:39.724Z,1.10
2022-08-31T23:19:12.298Z,1.10
2022-08-31T23:21:44.969Z,1.10
2022-08-31T23:24:16.947Z,1.10
2022-08-31T23:26:47.480Z,1.27
2022-08-31T23:29:18.010Z,1.15
2022-08-31T23:31:48.625Z,1.10
2022-08-31T23:34:17.600Z,1.33
2022-08-31T23:36:49.354Z,1.30
2022-08-31T23:39:19.492Z,1.77
2022-08-31T23:41:48.077Z,1.80
2022-08-31T23:44:16.853Z,1.75
2022-08-31T23:46:44.650Z,1.50
2022-08-31T23:49:15.553Z,1.60
2022-08-31T23:51:43.154Z,1.63
2022-08-31T23:54:13.914Z,1.52
2022-08-31T23:56:45.852Z,1.52
2022-08-31T23:59:17.186Z,1.50
